Time;durP1;ratioP1;P1;durP2;ratioP2;P2;SDS_P1;SDS_P2;PMS_P1;PMS_P2;Temp;Humidity;BMP_temperature;BMP_pressure;BME280_temperature;BME280_humidity;BME280_pressure;Samples;Min_cycle;Max_cycle;Signal;HPM_P1;HPM_P2
2023/03/04 00:02:15;;;;;;;18.92;13.23;;;0.90;99.90;;;;;;5006259;28;20222;-72
2023/03/04 00:05:02;;;;;;;20.45;13.68;;;0.70;99.90;;;;;;5002144;28;20242;-72
2023/03/04 00:07:48;;;;;;;24.05;14.38;;;0.70;99.90;;;;;;5004242;28;20351;-73
2023/03/04 00:10:35;;;;;;;21.90;13.70;;;0.70;99.90;;;;;;5009424;28;20200;-73
2023/03/04 00:13:21;;;;;;;24.98;14.15;;;0.70;99.90;;;;;;5014582;28;20203;-72
2023/03/04 00:16:07;;;;;;;21.67;14.88;;;0.70;99.90;;;;;;5006623;28;20320;-71
2023/03/04 00:18:53;;;;;;;25.15;15.60;;;0.60;99.90;;;;;;4999040;28;20586;-72
2023/03/04 00:21:39;;;;;;;21.92;14.63;;;0.40;99.90;;;;;;5005461;28;20206;-71
2023/03/04 00:24:25;;;;;;;21.42;14.27;;;0.40;99.90;;;;;;5002483;28;20238;-73
2023/03/04 00:27:11;;;;;;;20.80;13.77;;;0.50;99.90;;;;;;4999741;28;20644;-72
2023/03/04 00:29:57;;;;;;;20.83;13.10;;;0.50;99.90;;;;;;5009323;28;20206;-70
2023/03/04 00:32:43;;;;;;;19.80;13.35;;;0.60;99.90;;;;;;5002154;28;20202;-72
2023/03/04 00:35:28;;;;;;;20.90;15.10;;;0.40;99.90;;;;;;5004388;28;20299;-73
2023/03/04 00:38:14;;;;;;;18.95;13.98;;;0.40;99.90;;;;;;5003377;28;20278;-73
2023/03/04 00:41:00;;;;;;;22.90;14.02;;;0.40;99.90;;;;;;5003471;28;20701;-73
2023/03/04 00:43:47;;;;;;;18.92;12.23;;;0.50;99.90;;;;;;5007203;28;20265;-72
2023/03/04 00:46:32;;;;;;;18.88;12.55;;;0.60;99.90;;;;;;5002773;28;20200;-73
2023/03/04 00:49:18;;;;;;;19.70;13.15;;;0.60;99.90;;;;;;5009103;28;20199;-72
2023/03/04 00:52:04;;;;;;;19.85;13.25;;;0.70;99.90;;;;;;5010330;28;20215;-72
2023/03/04 00:54:49;;;;;;;24.55;13.75;;;0.70;99.90;;;;;;5012572;28;20515;-72
2023/03/04 00:57:35;;;;;;;21.30;12.55;;;0.60;99.90;;;;;;5008851;28;20335;-73
2023/03/04 01:00:23;;;;;;;21.17;13.13;;;0.70;99.90;;;;;;5007856;28;20204;-72
2023/03/04 01:03:08;;;;;;;19.25;12.82;;;0.70;99.90;;;;;;5009614;28;20297;-71
2023/03/04 01:05:54;;;;;;;23.20;15.80;;;0.70;99.90;;;;;;5007186;28;20266;-72
2023/03/04 01:08:40;;;;;;;22.15;13.15;;;0.70;99.90;;;;;;5018536;28;20228;-73
2023/03/04 01:11:26;;;;;;;23.58;15.57;;;0.70;99.90;;;;;;5003192;28;20249;-71
2023/03/04 01:14:11;;;;;;;22.55;14.32;;;0.70;99.90;;;;;;5008863;28;20231;-73
2023/03/04 01:16:59;;;;;;;24.38;14.38;;;0.70;99.90;;;;;;5006114;28;20306;-72
2023/03/04 01:19:44;;;;;;;26.05;16.25;;;0.70;99.90;;;;;;5007946;28;20342;-73
2023/03/04 01:22:30;;;;;;;20.02;12.50;;;0.70;99.90;;;;;;5007007;28;20338;-73
2023/03/04 01:25:16;;;;;;;20.15;13.73;;;0.60;99.90;;;;;;5004722;28;20236;-72
2023/03/04 01:28:01;;;;;;;21.08;12.75;;;0.50;99.90;;;;;;5012610;28;20226;-71
2023/03/04 01:30:47;;;;;;;28.40;14.35;;;0.30;99.90;;;;;;5006769;28;20218;-72
2023/03/04 01:33:34;;;;;;;18.85;12.13;;;0.20;99.90;;;;;;5006943;28;20207;-70
2023/03/04 01:36:19;;;;;;;24.08;14.90;;;0.20;99.90;;;;;;5008443;28;20279;-72
2023/03/04 01:39:05;;;;;;;25.40;15.43;;;0.20;99.90;;;;;;5007397;28;20499;-73
2023/03/04 01:41:51;;;;;;;23.63;13.50;;;0.10;99.90;;;;;;5013842;28;20206;-72
2023/03/04 01:44:36;;;;;;;26.70;15.80;;;0.00;99.90;;;;;;5011459;28;20246;-73
2023/03/04 01:47:26;;;;;;;24.50;15.10;;;0.10;99.90;;;;;;5006239;28;20266;-73
2023/03/04 01:50:19;;;;;;;27.27;15.70;;;0.20;99.90;;;;;;5008546;28;20202;-73
2023/03/04 01:53:05;;;;;;;24.63;15.07;;;0.30;99.90;;;;;;5007827;28;20684;-72
2023/03/04 01:55:53;;;;;;;25.10;15.63;;;0.20;99.90;;;;;;4999692;28;20227;-72
2023/03/04 01:58:38;;;;;;;23.25;15.88;;;0.20;99.90;;;;;;5006628;28;20203;-72
2023/03/04 02:01:24;;;;;;;23.27;15.93;;;0.10;99.90;;;;;;5007742;28;20206;-71
2023/03/04 02:04:10;;;;;;;25.02;14.80;;;0.10;99.90;;;;;;5028643;22;20277;-71
2023/03/04 02:06:59;;;;;;;26.15;15.82;;;0.10;99.90;;;;;;5047459;28;20237;-71
2023/03/04 02:09:44;;;;;;;21.48;14.90;;;0.00;99.90;;;;;;5051440;28;20332;-70
2023/03/04 02:12:30;;;;;;;23.95;16.48;;;-0.10;99.90;;;;;;5053190;28;20205;-71
2023/03/04 02:15:16;;;;;;;25.00;15.65;;;0.00;99.90;;;;;;5053661;28;20363;-71
2023/03/04 02:18:15;;;;;;;25.58;15.38;;;0.00;99.90;;;;;;5046174;28;20205;-71
2023/03/04 02:21:09;;;;;;;25.50;16.85;;;0.10;99.90;;;;;;5044569;28;20207;-71
2023/03/04 02:24:06;;;;;;;23.52;15.27;;;0.20;99.90;;;;;;5044460;28;20251;-71
2023/03/04 02:26:53;;;;;;;28.80;17.13;;;0.10;99.90;;;;;;5046424;28;20203;-71
2023/03/04 02:29:39;;;;;;;27.17;17.75;;;0.00;99.90;;;;;;5047009;28;20215;-71
2023/03/04 02:32:25;;;;;;;27.42;17.48;;;0.00;99.90;;;;;;5047293;28;20209;-71
2023/03/04 02:35:16;;;;;;;32.63;14.88;;;0.10;99.90;;;;;;5045017;28;20225;-71
2023/03/04 02:38:01;;;;;;;25.27;16.75;;;0.00;99.90;;;;;;5046801;28;20333;-70
2023/03/04 02:40:50;;;;;;;20.70;15.02;;;0.00;99.90;;;;;;5047851;28;20806;-70
2023/03/04 02:43:37;;;;;;;24.10;15.38;;;-0.10;99.90;;;;;;5047550;28;20284;-72
2023/03/04 02:46:23;;;;;;;23.30;14.52;;;0.00;99.90;;;;;;5043591;28;20206;-70
2023/03/04 02:49:08;;;;;;;23.90;15.10;;;0.00;99.90;;;;;;5046908;28;20302;-71
2023/03/04 02:52:00;;;;;;;23.23;14.77;;;0.00;99.90;;;;;;5046065;28;20278;-71
2023/03/04 02:54:46;;;;;;;22.80;14.77;;;-0.10;99.90;;;;;;5038766;28;20304;-70
2023/03/04 02:57:32;;;;;;;26.50;14.60;;;-0.20;99.90;;;;;;5045311;28;20301;-71
2023/03/04 03:00:19;;;;;;;26.13;15.85;;;-0.20;99.90;;;;;;5043662;28;20205;-71
2023/03/04 03:03:05;;;;;;;22.80;14.25;;;-0.40;99.90;;;;;;5048625;28;20213;-70
2023/03/04 03:05:51;;;;;;;23.92;15.20;;;-0.40;99.90;;;;;;5041457;28;20251;-71
2023/03/04 03:08:37;;;;;;;27.17;15.88;;;-0.40;99.90;;;;;;5049589;28;20756;-71
2023/03/04 03:11:23;;;;;;;28.33;16.38;;;-0.40;99.90;;;;;;5042595;28;20205;-71
2023/03/04 03:14:08;;;;;;;25.90;16.65;;;-0.40;99.90;;;;;;5040685;28;20304;-70
2023/03/04 03:16:55;;;;;;;24.38;16.30;;;-0.40;99.90;;;;;;5043195;28;20213;-70
2023/03/04 03:19:41;;;;;;;30.17;15.10;;;-0.30;99.90;;;;;;5051627;28;20200;-71
2023/03/04 03:22:27;;;;;;;28.05;17.88;;;-0.10;99.90;;;;;;5057474;28;20201;-70
2023/03/04 03:25:15;;;;;;;27.20;18.00;;;0.00;99.90;;;;;;5046666;28;20242;-71
2023/03/04 03:28:00;;;;;;;29.85;17.92;;;0.10;99.90;;;;;;5048756;28;20693;-71
2023/03/04 03:30:46;;;;;;;30.58;17.80;;;0.20;99.90;;;;;;5059968;28;20583;-71
2023/03/04 03:33:32;;;;;;;27.02;18.08;;;0.20;99.90;;;;;;5044396;28;20373;-70
2023/03/04 03:36:18;;;;;;;25.70;17.30;;;0.20;99.90;;;;;;5052185;28;20202;-71
2023/03/04 03:39:04;;;;;;;33.72;18.17;;;0.20;99.90;;;;;;5052026;28;20578;-71
2023/03/04 03:41:50;;;;;;;35.10;17.85;;;0.20;99.90;;;;;;5055807;28;20282;-70
2023/03/04 03:44:35;;;;;;;30.98;18.20;;;0.30;99.90;;;;;;5045586;28;20224;-71
2023/03/04 03:47:21;;;;;;;39.28;18.67;;;0.40;99.90;;;;;;5049902;28;20208;-71
2023/03/04 03:50:09;;;;;;;38.10;20.63;;;0.60;99.90;;;;;;5044752;28;20214;-70
2023/03/04 03:52:55;;;;;;;30.83;18.02;;;0.70;99.90;;;;;;5046156;28;20209;-71
2023/03/04 03:55:40;;;;;;;32.67;18.70;;;0.70;99.90;;;;;;5041143;28;20225;-71
2023/03/04 03:58:26;;;;;;;31.48;18.65;;;0.70;99.90;;;;;;5045370;28;20210;-71
2023/03/04 04:01:12;;;;;;;37.25;17.40;;;0.80;99.90;;;;;;5044015;28;20205;-70
2023/03/04 04:03:57;;;;;;;30.00;17.85;;;0.90;99.90;;;;;;5039669;28;20574;-71
2023/03/04 04:06:44;;;;;;;30.60;17.90;;;1.00;99.90;;;;;;5052334;28;20200;-70
2023/03/04 04:09:30;;;;;;;37.15;17.95;;;0.90;99.90;;;;;;5053727;28;20344;-71
2023/03/04 04:12:17;;;;;;;31.38;17.30;;;0.90;99.90;;;;;;5050061;28;20686;-71
2023/03/04 04:15:02;;;;;;;28.80;16.33;;;0.90;99.90;;;;;;5038826;28;20628;-71
2023/03/04 04:17:48;;;;;;;30.30;16.70;;;1.00;99.90;;;;;;5039551;28;20288;-70
2023/03/04 04:20:34;;;;;;;28.27;16.15;;;1.00;99.90;;;;;;5047057;28;20209;-71
2023/03/04 04:23:21;;;;;;;32.90;18.55;;;1.00;99.90;;;;;;5046094;28;20283;-70
2023/03/04 04:26:07;;;;;;;25.63;16.27;;;0.80;99.90;;;;;;5047718;28;20310;-71
2023/03/04 04:28:53;;;;;;;32.63;17.25;;;0.80;99.90;;;;;;5052390;28;20233;-70
2023/03/04 04:31:38;;;;;;;29.40;17.40;;;0.70;99.90;;;;;;5052271;28;20220;-71
2023/03/04 04:34:24;;;;;;;29.33;17.45;;;0.70;99.90;;;;;;5044974;28;20238;-71
2023/03/04 04:37:10;;;;;;;29.95;17.48;;;0.80;99.90;;;;;;5051860;28;20197;-70
2023/03/04 04:39:57;;;;;;;29.73;16.63;;;0.80;99.90;;;;;;5050123;28;20214;-71
2023/03/04 04:42:42;;;;;;;27.80;16.80;;;0.90;99.90;;;;;;5045463;28;20213;-70
2023/03/04 04:45:28;;;;;;;27.58;16.80;;;0.80;99.90;;;;;;5050175;28;20229;-70
2023/03/04 04:48:14;;;;;;;31.63;17.88;;;0.90;99.90;;;;;;5052626;28;20221;-70
2023/03/04 04:50:59;;;;;;;27.20;17.08;;;0.90;99.90;;;;;;5048659;28;20226;-71
2023/03/04 04:53:45;;;;;;;32.60;18.60;;;0.80;99.90;;;;;;5041413;28;20217;-71
2023/03/04 04:56:33;;;;;;;35.67;19.05;;;0.70;99.90;;;;;;5049093;28;20202;-71
2023/03/04 04:59:18;;;;;;;32.28;17.55;;;0.80;99.90;;;;;;5048929;28;20321;-71
2023/03/04 05:02:04;;;;;;;28.35;17.80;;;0.80;99.90;;;;;;5045879;28;20208;-71
2023/03/04 05:04:50;;;;;;;27.05;16.92;;;0.80;99.90;;;;;;5050174;28;20738;-70
2023/03/04 05:07:36;;;;;;;30.58;18.38;;;0.80;99.90;;;;;;5049117;28;20213;-71
2023/03/04 05:10:22;;;;;;;29.52;16.30;;;0.90;99.90;;;;;;5042514;28;20202;-72
2023/03/04 05:13:09;;;;;;;24.58;15.65;;;1.00;99.90;;;;;;5046933;28;20573;-71
2023/03/04 05:15:56;;;;;;;26.95;16.05;;;1.00;99.90;;;;;;5046676;28;20221;-70
2023/03/04 05:18:42;;;;;;;27.08;17.63;;;1.10;99.90;;;;;;5044532;28;20778;-70
2023/03/04 05:21:28;;;;;;;29.20;18.73;;;1.10;99.90;;;;;;5050291;28;20228;-70
2023/03/04 05:24:13;;;;;;;28.50;17.38;;;1.10;99.90;;;;;;5046204;28;20233;-71
2023/03/04 05:26:59;;;;;;;31.92;17.85;;;1.10;99.90;;;;;;5044724;28;20245;-70
2023/03/04 05:29:46;;;;;;;27.83;17.80;;;1.00;99.90;;;;;;5052753;28;20225;-71
2023/03/04 05:32:32;;;;;;;33.35;17.45;;;1.10;99.90;;;;;;5044533;28;20202;-71
2023/03/04 05:35:18;;;;;;;26.85;17.38;;;1.10;99.90;;;;;;5049646;28;20938;-70
2023/03/04 05:38:05;;;;;;;29.38;17.35;;;1.10;99.90;;;;;;5047492;28;20734;-70
2023/03/04 05:40:57;;;;;;;33.55;17.92;;;1.10;99.90;;;;;;5054351;28;20206;-71
2023/03/04 05:43:43;;;;;;;30.40;18.35;;;1.10;99.90;;;;;;5045289;28;20202;-71
2023/03/04 05:46:30;;;;;;;32.83;17.60;;;1.10;99.90;;;;;;5045216;28;20197;-71
2023/03/04 05:49:15;;;;;;;27.95;17.17;;;1.10;99.90;;;;;;5054692;28;20229;-70
2023/03/04 05:52:01;;;;;;;31.08;18.38;;;0.90;99.90;;;;;;5042505;28;20249;-71
2023/03/04 05:54:46;;;;;;;30.98;18.50;;;1.00;99.90;;;;;;5054372;28;20303;-71
2023/03/04 05:57:32;;;;;;;26.65;17.75;;;1.00;99.90;;;;;;5049560;28;20311;-70
2023/03/04 06:00:18;;;;;;;29.05;18.85;;;1.10;99.90;;;;;;5049391;28;20202;-70
2023/03/04 06:03:05;;;;;;;27.73;17.15;;;1.20;99.90;;;;;;5044416;28;20294;-70
2023/03/04 06:05:51;;;;;;;28.98;18.48;;;1.20;99.90;;;;;;5048418;28;20233;-70
2023/03/04 06:08:36;;;;;;;33.25;19.15;;;1.10;99.90;;;;;;5051203;28;20221;-70
2023/03/04 06:11:22;;;;;;;34.63;20.20;;;1.10;99.90;;;;;;5046659;28;20214;-71
2023/03/04 06:14:08;;;;;;;32.42;20.00;;;1.10;99.90;;;;;;5050122;28;20204;-70
2023/03/04 06:16:53;;;;;;;41.50;25.27;;;1.20;99.90;;;;;;5052319;28;20721;-70
2023/03/04 06:19:40;;;;;;;43.45;26.90;;;1.20;99.90;;;;;;5042740;28;20253;-71
2023/03/04 06:22:26;;;;;;;36.20;22.63;;;1.00;99.90;;;;;;5043987;28;20201;-71
2023/03/04 06:25:11;;;;;;;30.38;19.38;;;1.10;99.90;;;;;;5049996;28;20348;-70
2023/03/04 06:27:57;;;;;;;40.05;21.25;;;1.10;99.90;;;;;;5047216;28;20577;-70
2023/03/04 06:30:43;;;;;;;38.92;21.23;;;1.10;99.90;;;;;;5045009;28;20221;-70
2023/03/04 06:33:28;;;;;;;31.17;18.60;;;1.10;99.90;;;;;;5053220;28;20333;-71
2023/03/04 06:36:16;;;;;;;37.00;21.92;;;1.20;99.90;;;;;;5048673;28;20830;-70
2023/03/04 06:39:03;;;;;;;39.72;25.15;;;1.30;99.90;;;;;;5048035;28;20245;-72
2023/03/04 06:41:48;;;;;;;31.25;20.65;;;1.40;99.90;;;;;;5043532;28;20210;-72
2023/03/04 06:44:34;;;;;;;35.35;20.58;;;1.50;99.90;;;;;;5048859;28;20225;-72
2023/03/04 06:47:20;;;;;;;34.20;19.92;;;1.50;99.90;;;;;;5046427;28;20291;-72
2023/03/04 06:50:06;;;;;;;30.48;17.77;;;1.60;99.90;;;;;;5047012;28;20225;-71
2023/03/04 06:52:55;;;;;;;34.10;19.38;;;1.50;99.90;;;;;;5044642;28;20210;-71
2023/03/04 06:55:41;;;;;;;36.65;21.20;;;1.60;99.90;;;;;;5048727;28;20278;-72
2023/03/04 06:58:27;;;;;;;38.95;22.55;;;1.70;99.90;;;;;;5047553;28;20255;-71
2023/03/04 07:01:15;;;;;;;35.88;21.63;;;1.70;99.90;;;;;;5041258;28;20210;-71
2023/03/04 07:04:02;;;;;;;35.28;20.33;;;1.70;99.90;;;;;;5045434;28;20209;-71
2023/03/04 07:06:47;;;;;;;36.00;21.95;;;1.70;99.90;;;;;;5045013;28;20255;-72
2023/03/04 07:09:34;;;;;;;37.45;22.27;;;1.80;99.90;;;;;;5053201;28;20228;-71
2023/03/04 07:12:20;;;;;;;34.47;19.55;;;1.80;99.90;;;;;;5043396;28;20214;-71
2023/03/04 07:15:07;;;;;;;36.83;22.27;;;1.90;99.90;;;;;;5047743;28;20228;-71
2023/03/04 07:17:53;;;;;;;36.05;21.60;;;1.90;99.90;;;;;;5043378;28;20201;-71
2023/03/04 07:20:38;;;;;;;36.63;21.85;;;1.90;99.90;;;;;;5042695;28;20198;-71
2023/03/04 07:23:24;;;;;;;34.13;21.85;;;1.90;99.90;;;;;;5050868;28;20737;-71
2023/03/04 07:26:11;;;;;;;39.65;21.70;;;1.90;99.90;;;;;;5046662;28;20268;-71
2023/03/04 07:28:58;;;;;;;33.92;19.20;;;2.00;99.90;;;;;;5046915;28;20223;-71
2023/03/04 07:31:44;;;;;;;31.92;19.90;;;2.00;99.90;;;;;;5043587;28;20252;-71
2023/03/04 07:34:29;;;;;;;35.17;21.33;;;2.00;99.90;;;;;;5045493;28;20300;-72
2023/03/04 07:37:15;;;;;;;36.13;20.95;;;2.00;99.90;;;;;;5046641;28;20202;-71
2023/03/04 07:40:01;;;;;;;27.23;18.35;;;2.10;99.90;;;;;;5039861;28;20265;-71
2023/03/04 07:42:51;;;;;;;33.17;21.30;;;2.20;99.90;;;;;;5043513;28;20354;-72
2023/03/04 07:45:37;;;;;;;34.25;21.30;;;2.20;99.90;;;;;;5046465;28;20318;-72
2023/03/04 07:48:23;;;;;;;36.30;20.73;;;2.20;99.90;;;;;;5047214;28;20202;-72
2023/03/04 07:51:11;;;;;;;41.90;23.33;;;2.20;99.90;;;;;;5043914;28;20707;-72
2023/03/04 07:53:58;;;;;;;42.97;21.27;;;2.30;99.90;;;;;;5046188;28;20239;-72
2023/03/04 07:56:44;;;;;;;40.17;24.58;;;2.40;99.90;;;;;;5041226;28;20342;-71
2023/03/04 07:59:31;;;;;;;38.70;24.70;;;2.40;99.90;;;;;;5047198;28;20206;-71
2023/03/04 08:02:16;;;;;;;41.58;24.73;;;2.20;99.90;;;;;;5048006;28;20563;-72
2023/03/04 08:05:04;;;;;;;35.08;21.67;;;2.20;99.90;;;;;;5080405;22;20229;-72
2023/03/04 08:07:49;;;;;;;38.77;22.90;;;2.30;99.90;;;;;;5077717;28;20320;-72
2023/03/04 08:10:38;;;;;;;36.40;23.60;;;2.40;99.90;;;;;;5056948;28;20837;-71
2023/03/04 08:13:23;;;;;;;41.35;25.48;;;2.50;99.90;;;;;;5058558;28;20202;-72
2023/03/04 08:16:12;;;;;;;45.80;29.70;;;2.40;99.90;;;;;;5059110;28;20272;-71
2023/03/04 08:19:00;;;;;;;46.17;28.25;;;2.60;99.90;;;;;;5062440;28;20735;-71
2023/03/04 08:21:46;;;;;;;37.88;24.77;;;2.60;99.90;;;;;;5067823;28;20337;-71
2023/03/04 08:24:32;;;;;;;44.67;26.48;;;2.60;99.90;;;;;;5063623;28;20278;-71
2023/03/04 08:27:17;;;;;;;43.17;25.73;;;2.70;99.90;;;;;;5067835;28;20556;-71
2023/03/04 08:30:04;;;;;;;43.40;26.20;;;2.70;99.90;;;;;;5063106;28;20307;-72
2023/03/04 08:32:51;;;;;;;42.20;24.25;;;2.80;99.90;;;;;;5061201;28;20276;-72
2023/03/04 08:35:37;;;;;;;40.47;24.92;;;2.90;99.90;;;;;;5068637;28;20225;-70
2023/03/04 08:38:23;;;;;;;40.03;25.13;;;3.00;99.90;;;;;;5065654;28;20303;-69
2023/03/04 08:41:08;;;;;;;40.42;25.15;;;3.00;99.90;;;;;;5062751;28;20612;-70
2023/03/04 08:43:54;;;;;;;40.30;26.15;;;3.10;99.90;;;;;;5071207;28;20303;-70
2023/03/04 08:46:41;;;;;;;48.08;24.60;;;3.10;99.90;;;;;;5062641;28;20252;-70
2023/03/04 08:49:28;;;;;;;41.45;25.70;;;3.20;99.90;;;;;;5060224;28;20257;-70
2023/03/04 08:52:14;;;;;;;39.25;25.60;;;3.30;99.90;;;;;;5064459;28;20336;-70
2023/03/04 08:54:59;;;;;;;39.15;24.17;;;3.40;99.90;;;;;;5063971;28;20236;-69
2023/03/04 08:57:45;;;;;;;63.13;26.98;;;3.40;99.90;;;;;;5072237;28;20209;-70
2023/03/04 09:00:31;;;;;;;62.30;24.13;;;3.40;99.90;;;;;;5066060;28;20307;-70
2023/03/04 09:03:18;;;;;;;40.97;24.38;;;3.40;99.90;;;;;;5069890;28;20639;-69
2023/03/04 09:06:06;;;;;;;39.60;23.08;;;3.40;99.90;;;;;;5076320;28;20725;-70
2023/03/04 09:08:52;;;;;;;33.45;20.67;;;3.50;99.90;;;;;;5060510;28;20312;-69
2023/03/04 09:11:37;;;;;;;34.60;22.58;;;3.60;99.90;;;;;;5077387;28;20209;-70
2023/03/04 09:14:23;;;;;;;39.58;25.17;;;3.60;99.90;;;;;;5065502;28;20232;-69
2023/03/04 09:17:08;;;;;;;35.75;23.45;;;3.70;99.90;;;;;;5063613;28;20571;-69
2023/03/04 09:19:54;;;;;;;37.88;23.23;;;3.80;99.90;;;;;;5068429;28;20210;-68
2023/03/04 09:22:42;;;;;;;33.63;23.27;;;3.80;99.90;;;;;;5058362;28;20217;-68
2023/03/04 09:25:27;;;;;;;36.17;23.92;;;3.90;99.90;;;;;;5064235;28;20221;-69
2023/03/04 09:28:14;;;;;;;37.78;23.77;;;3.90;99.90;;;;;;5064540;28;20211;-68
2023/03/04 09:31:00;;;;;;;33.45;22.55;;;3.90;99.90;;;;;;5063137;28;20230;-69
2023/03/04 09:33:46;;;;;;;33.78;21.88;;;4.00;99.90;;;;;;5066649;28;20241;-68
2023/03/04 09:36:31;;;;;;;31.55;22.95;;;4.10;99.90;;;;;;5072626;28;20698;-68
2023/03/04 09:39:18;;;;;;;29.40;22.13;;;4.10;99.90;;;;;;5067148;28;20198;-69
2023/03/04 09:42:07;;;;;;;34.20;25.00;;;4.20;99.90;;;;;;5064830;28;20626;-68
2023/03/04 09:44:54;;;;;;;34.80;22.35;;;4.30;99.90;;;;;;5066365;28;20835;-69
2023/03/04 09:47:40;;;;;;;37.47;22.52;;;4.30;99.90;;;;;;5063177;28;20332;-68
2023/03/04 09:50:27;;;;;;;31.55;21.65;;;4.20;99.90;;;;;;5065286;28;20714;-69
2023/03/04 09:53:20;;;;;;;35.08;23.23;;;4.30;99.90;;;;;;5063666;28;20252;-68
2023/03/04 09:56:09;;;;;;;45.33;22.42;;;4.40;99.90;;;;;;5060327;28;20703;-69
2023/03/04 09:59:03;;;;;;;31.27;21.15;;;4.40;99.90;;;;;;5069117;28;20678;-69
2023/03/04 10:01:52;;;;;;;33.58;21.42;;;4.40;99.90;;;;;;5063414;28;20205;-69
2023/03/04 10:04:42;;;;;;;35.97;21.27;;;4.40;99.90;;;;;;5061064;28;20409;-69
2023/03/04 10:07:32;;;;;;;32.25;21.00;;;4.40;99.90;;;;;;5072358;28;20666;-68
2023/03/04 10:10:25;;;;;;;28.10;19.60;;;4.40;99.90;;;;;;5069796;28;20225;-69
2023/03/04 10:13:18;;;;;;;34.17;20.85;;;4.40;99.90;;;;;;5064525;28;20202;-68
2023/03/04 10:16:06;;;;;;;35.65;21.13;;;4.40;99.90;;;;;;5065606;28;20906;-68
2023/03/04 10:18:56;;;;;;;37.08;21.35;;;4.40;99.90;;;;;;5067596;28;20251;-68
2023/03/04 10:21:44;;;;;;;32.72;20.55;;;4.50;99.90;;;;;;5068134;28;20775;-69
2023/03/04 10:24:35;;;;;;;31.85;20.88;;;4.50;99.90;;;;;;5066698;28;20672;-69
2023/03/04 10:27:22;;;;;;;33.55;22.02;;;4.60;99.90;;;;;;5073514;28;20697;-68
2023/03/04 10:30:19;;;;;;;34.17;19.85;;;4.80;99.90;;;;;;5068301;28;20733;-69
2023/03/04 10:33:11;;;;;;;27.05;18.25;;;4.90;99.90;;;;;;5069317;28;20211;-68
2023/03/04 10:36:02;;;;;;;29.90;19.67;;;4.90;99.90;;;;;;5067330;28;20602;-69
2023/03/04 10:38:47;;;;;;;25.90;17.53;;;5.00;99.90;;;;;;5067384;28;20687;-69
2023/03/04 10:41:33;;;;;;;31.33;19.17;;;5.00;99.90;;;;;;5064569;28;20923;-69
2023/03/04 10:44:19;;;;;;;30.55;19.88;;;5.00;99.90;;;;;;5062852;28;20460;-67
2023/03/04 10:47:10;;;;;;;39.05;19.23;;;5.00;99.90;;;;;;5067824;28;20202;-68
2023/03/04 10:49:58;;;;;;;33.70;18.33;;;4.90;99.90;;;;;;5063196;28;20227;-69
2023/03/04 10:52:51;;;;;;;33.27;18.83;;;5.00;99.90;;;;;;5064307;28;20468;-68
2023/03/04 10:55:44;;;;;;;33.00;17.27;;;5.10;99.90;;;;;;5058342;28;20849;-68
2023/03/04 10:58:30;;;;;;;27.50;16.17;;;5.20;99.90;;;;;;5067377;28;20547;-69
2023/03/04 11:01:23;;;;;;;29.30;16.10;;;5.30;99.90;;;;;;5067914;28;20441;-68
2023/03/04 11:04:17;;;;;;;31.03;17.23;;;5.30;99.10;;;;;;5061430;28;20459;-68
2023/03/04 11:07:08;;;;;;;25.03;14.80;;;5.40;99.90;;;;;;5064625;28;20447;-69
2023/03/04 11:09:54;;;;;;;28.83;16.47;;;5.50;98.10;;;;;;5071096;28;21003;-68
2023/03/04 11:12:40;;;;;;;27.77;15.23;;;5.50;96.70;;;;;;5065706;28;20949;-68
2023/03/04 11:15:28;;;;;;;20.17;13.43;;;5.60;97.00;;;;;;5061942;28;20556;-69
2023/03/04 11:18:15;;;;;;;24.20;14.07;;;5.60;94.10;;;;;;5065232;28;20504;-68
2023/03/04 11:21:02;;;;;;;32.20;15.60;;;5.60;93.40;;;;;;5060328;28;20444;-68
2023/03/04 11:23:53;;;;;;;24.98;15.38;;;5.60;93.80;;;;;;5060112;28;20901;-68
2023/03/04 11:26:42;;;;;;;25.23;15.37;;;5.50;93.80;;;;;;5064375;28;20674;-68
2023/03/04 11:29:33;;;;;;;22.75;15.48;;;5.60;94.50;;;;;;5060901;28;20606;-69
2023/03/04 11:32:24;;;;;;;27.37;16.10;;;5.50;94.10;;;;;;5061245;28;20244;-69
2023/03/04 11:35:20;;;;;;;25.55;14.07;;;5.50;94.60;;;;;;5059325;28;20554;-69
2023/03/04 11:38:17;;;;;;;27.97;14.30;;;5.60;93.50;;;;;;5062425;28;20193;-68
2023/03/04 11:41:06;;;;;;;25.15;14.60;;;5.60;93.50;;;;;;5060433;28;20468;-68
2023/03/04 11:43:52;;;;;;;37.20;14.27;;;5.70;93.30;;;;;;5065983;28;20217;-70
2023/03/04 11:46:54;;;;;;;26.67;14.43;;;5.70;93.20;;;;;;5074704;28;20440;-70
2023/03/04 11:50:10;;;;;;;23.23;14.20;;;5.60;93.10;;;;;;5067843;28;20978;-68
2023/03/04 11:53:36;;;;;;;30.33;14.67;;;5.60;93.20;;;;;;5067306;28;20457;-68
2023/03/04 11:56:31;;;;;;;26.63;15.70;;;5.80;93.20;;;;;;5066653;28;20448;-69
2023/03/04 11:59:44;;;;;;;29.25;14.98;;;5.80;92.40;;;;;;5062470;28;20450;-70
2023/03/04 12:02:36;;;;;;;34.97;19.42;;;5.60;92.30;;;;;;5066629;28;20859;-71
2023/03/04 12:05:31;;;;;;;40.10;18.90;;;5.50;95.00;;;;;;5061672;28;20228;-69
2023/03/04 12:08:30;;;;;;;44.03;17.70;;;5.30;95.90;;;;;;5061531;28;20452;-69
2023/03/04 12:11:27;;;;;;;35.33;19.10;;;5.40;95.90;;;;;;5062202;28;20235;-69
2023/03/04 12:14:25;;;;;;;33.77;19.23;;;5.40;95.60;;;;;;5060650;28;20498;-68
2023/03/04 12:17:34;;;;;;;43.30;23.27;;;5.30;96.50;;;;;;5059734;28;20457;-68
2023/03/04 12:20:44;;;;;;;51.07;26.30;;;5.30;97.70;;;;;;5061363;28;20439;-69
2023/03/04 12:23:55;;;;;;;44.33;25.25;;;5.30;98.10;;;;;;5057010;28;20459;-68
2023/03/04 12:26:49;;;;;;;47.45;25.73;;;5.40;98.90;;;;;;5062550;28;20204;-69
2023/03/04 12:29:43;;;;;;;53.75;29.05;;;5.40;99.50;;;;;;5063292;28;20227;-69
2023/03/04 12:32:40;;;;;;;49.53;25.70;;;5.30;99.90;;;;;;5060586;28;20205;-69
2023/03/04 12:35:38;;;;;;;52.17;25.75;;;5.20;99.90;;;;;;5060053;28;20481;-69
2023/03/04 12:38:34;;;;;;;52.23;24.30;;;5.20;99.90;;;;;;5062473;28;20260;-68
2023/03/04 12:41:29;;;;;;;30.00;19.88;;;5.10;99.90;;;;;;5065865;28;20591;-70
2023/03/04 12:44:18;;;;;;;44.55;21.92;;;5.00;99.90;;;;;;5064095;28;20213;-68
2023/03/04 12:47:19;;;;;;;38.92;20.90;;;5.00;99.90;;;;;;5067981;28;20219;-69
2023/03/04 12:50:24;;;;;;;32.08;17.45;;;5.10;99.90;;;;;;5069659;28;20205;-69
2023/03/04 12:53:20;;;;;;;38.67;17.27;;;5.20;99.40;;;;;;5069155;28;20253;-69
2023/03/04 12:56:07;;;;;;;42.50;16.43;;;5.20;99.10;;;;;;5070207;28;20240;-68
2023/03/04 12:58:53;;;;;;;34.13;16.40;;;5.20;99.40;;;;;;5063804;28;21014;-68
2023/03/04 13:01:46;;;;;;;38.60;19.20;;;5.20;99.70;;;;;;5063207;28;20456;-69
2023/03/04 13:04:43;;;;;;;35.70;17.63;;;5.10;99.40;;;;;;5070847;28;20205;-69
2023/03/04 13:07:42;;;;;;;257.58;97.75;;;5.10;99.80;;;;;;5063549;28;20892;-69
2023/03/04 13:10:28;;;;;;;38.67;19.05;;;5.10;99.90;;;;;;5066671;28;20206;-69
2023/03/04 13:13:36;;;;;;;39.38;21.45;;;5.10;99.80;;;;;;5065795;28;20200;-69
2023/03/04 13:16:32;;;;;;;54.05;22.38;;;5.10;99.90;;;;;;5071652;28;20584;-69
2023/03/04 13:19:49;;;;;;;36.95;16.30;;;5.10;99.90;;;;;;5069671;28;20207;-69
2023/03/04 13:22:46;;;;;;;33.58;18.20;;;5.00;99.50;;;;;;5063037;28;20201;-69
2023/03/04 13:25:38;;;;;;;46.17;25.13;;;5.10;99.90;;;;;;5070657;28;20225;-69
2023/03/04 13:28:29;;;;;;;38.57;21.47;;;5.20;99.90;;;;;;5066097;28;20272;-70
2023/03/04 13:31:19;;;;;;;45.13;20.75;;;5.20;99.90;;;;;;5065874;28;20990;-69
2023/03/04 13:34:05;;;;;;;36.33;20.42;;;5.20;99.90;;;;;;5067281;28;20742;-69
2023/03/04 13:36:58;;;;;;;43.80;22.10;;;5.10;99.90;;;;;;5065614;28;20571;-69
2023/03/04 13:39:43;;;;;;;44.05;20.88;;;5.10;99.90;;;;;;5068543;28;20248;-69
2023/03/04 13:42:41;;;;;;;34.13;17.88;;;5.20;99.90;;;;;;5066720;28;20206;-69
2023/03/04 13:45:33;;;;;;;35.20;17.48;;;5.20;99.70;;;;;;5063630;28;20752;-69
2023/03/04 13:48:37;;;;;;;30.77;18.40;;;5.20;99.90;;;;;;5064561;28;20211;-68
2023/03/04 13:51:26;;;;;;;35.38;18.77;;;5.20;99.10;;;;;;5062032;28;20222;-69
2023/03/04 13:54:22;;;;;;;34.17;18.00;;;5.10;99.90;;;;;;5062423;28;20253;-69
2023/03/04 13:57:17;;;;;;;42.25;18.33;;;5.20;99.90;;;;;;5064864;28;20286;-69
2023/03/04 14:00:12;;;;;;;43.10;20.38;;;5.30;99.90;;;;;;5057468;28;20206;-69
2023/03/04 14:02:57;;;;;;;35.92;19.13;;;5.30;99.90;;;;;;5060877;28;20193;-69
2023/03/04 14:05:42;;;;;;;31.23;17.95;;;5.30;99.90;;;;;;5086918;22;20231;-69
2023/03/04 14:08:28;;;;;;;39.13;19.20;;;5.40;99.90;;;;;;5062510;28;20557;-71
2023/03/04 14:11:22;;;;;;;35.97;20.90;;;5.40;99.40;;;;;;5059932;28;20214;-69
2023/03/04 14:14:12;;;;;;;43.83;19.00;;;5.40;99.60;;;;;;5062319;28;20197;-71
2023/03/04 14:17:00;;;;;;;50.13;20.20;;;5.40;99.60;;;;;;5083719;28;20717;-71
2023/03/04 14:19:47;;;;;;;36.03;19.73;;;5.50;99.60;;;;;;5080580;28;20501;-71
2023/03/04 14:22:38;;;;;;;40.10;18.77;;;5.40;99.70;;;;;;5079552;28;20431;-71
2023/03/04 14:25:26;;;;;;;39.83;19.30;;;5.40;99.80;;;;;;5084350;28;20525;-71